Decoded Metar for LFLN (ST.-YAN in FRANCE) (IATA:N/A) | Meteo·Mobile Aviation Weather
aviador You're here:

LFLN Decoded Metar

ST.-YAN in FRANCE
Report Time2019-10-19 23:00:00
UTC Time2019-10-19 23:09:55
Flight Rules vfr VFR
Wind080° at 03 kt
W.Decomp.*RWY 15: 1.0 kt HW 2.8 kt LCW
Visibility9999 m
Phenomena:N/A
Clouds:N/A
CeilingNone
Temp13°C (ISA -0)
Dew Point13°C (100% RH)
AAT12.9°C
QNH1005 hPa
Density Alt1,227 ft
Elevation801 ft
Report Wrong Elevation
Raw Report
METAR LFLN 192300Z AUTO 08003KT CAVOK 13/13 Q1005=

Extra information for LFLN:More info

Metar Taf Metar & Taf Last 4 Metars F.Rules Stats Wind Profile Meteogram Temp Stats Airport Information Weather charts Add Link Nearby VenuesMetar ALERT Operation Metar Decoded Social comments